Time;durP1;ratioP1;P1;durP2;ratioP2;P2;SDS_P1;SDS_P2;PMS_P1;PMS_P2;Temp;Humidity;BMP_temperature;BMP_pressure;BME280_temperature;BME280_humidity;BME280_pressure;Samples;Min_cycle;Max_cycle;Signal;HPM_P1;HPM_P2
2021/12/25 00:01:28;;;;;;;5.30;1.50;;;28.40;99.90;;;;;;5042882;28;20079;-67
2021/12/25 00:03:56;;;;;;;6.03;1.80;;;28.30;99.90;;;;;;5049085;28;20033;-68
2021/12/25 00:06:24;;;;;;;8.10;1.42;;;28.40;99.90;;;;;;5050205;28;20025;-68
2021/12/25 00:08:52;;;;;;;3.53;0.93;;;28.20;99.90;;;;;;5051313;28;20472;-67
2021/12/25 00:11:19;;;;;;;4.45;0.90;;;28.40;99.90;;;;;;5049484;28;20029;-68
2021/12/25 00:13:47;;;;;;;3.22;1.15;;;28.40;99.90;;;;;;5048895;28;20521;-67
2021/12/25 00:16:14;;;;;;;6.68;1.35;;;28.40;99.90;;;;;;5051190;28;20021;-69
2021/12/25 00:18:41;;;;;;;5.35;1.08;;;28.50;99.90;;;;;;5046636;28;20071;-69
2021/12/25 00:21:09;;;;;;;4.57;1.50;;;28.50;99.90;;;;;;5052972;28;20083;-68
2021/12/25 00:23:38;;;;;;;5.50;1.52;;;28.50;99.90;;;;;;5054263;28;20032;-69
2021/12/25 00:26:27;;;;;;;5.22;1.25;;;28.30;99.90;;;;;;5048271;28;20071;-66
2021/12/25 00:29:01;;;;;;;3.53;1.10;;;28.50;99.90;;;;;;5047679;28;20033;-67
2021/12/25 00:31:56;;;;;;;4.63;1.35;;;28.50;99.90;;;;;;5057016;28;20440;-68
2021/12/25 00:34:15;;;;;;;3.15;1.02;;;28.50;99.90;;;;;;5053801;28;20033;-68
2021/12/25 00:36:43;;;;;;;8.32;0.90;;;28.60;99.90;;;;;;5049742;28;20029;-66
2021/12/25 00:39:10;;;;;;;5.20;0.80;;;28.80;99.90;;;;;;5053927;28;20358;-67
2021/12/25 00:41:37;;;;;;;5.07;0.95;;;28.80;99.90;;;;;;5053779;28;20048;-66
2021/12/25 00:44:05;;;;;;;6.32;1.08;;;28.90;99.90;;;;;;5055154;28;20381;-67
2021/12/25 00:46:32;;;;;;;4.07;0.82;;;28.80;99.90;;;;;;5054230;28;20501;-67
2021/12/25 00:48:59;;;;;;;5.22;1.30;;;28.80;99.90;;;;;;5055010;28;20078;-67
2021/12/25 00:51:26;;;;;;;4.90;0.98;;;28.90;99.90;;;;;;5051815;28;20059;-67
2021/12/25 00:53:54;;;;;;;3.80;1.27;;;28.80;99.90;;;;;;5034503;28;20033;-67
2021/12/25 00:56:21;;;;;;;5.75;1.10;;;28.80;99.90;;;;;;5037847;28;20116;-67
2021/12/25 00:58:48;;;;;;;6.32;1.27;;;29.10;99.90;;;;;;5050218;28;20061;-67
2021/12/25 01:01:15;;;;;;;5.57;1.00;;;29.10;99.90;;;;;;5038120;28;20367;-68
2021/12/25 01:03:43;;;;;;;4.95;1.27;;;29.20;99.90;;;;;;5054415;28;20024;-67
2021/12/25 01:06:10;;;;;;;2.85;0.60;;;29.30;99.90;;;;;;5052087;28;20021;-68
2021/12/25 01:08:37;;;;;;;5.45;0.90;;;28.80;99.90;;;;;;5055189;28;20033;-68
2021/12/25 01:11:05;;;;;;;3.20;0.90;;;28.90;99.90;;;;;;5052071;28;20465;-68
2021/12/25 01:13:38;;;;;;;4.30;1.10;;;28.80;99.90;;;;;;5052244;28;20025;-68
2021/12/25 01:31:32;;;;;;;4.68;1.13;;;28.90;99.90;;;;;;5046617;28;20104;-68
2021/12/25 01:47:48;;;;;;;6.70;1.38;;;28.80;99.90;;;;;;5053111;28;20175;-67
2021/12/25 01:50:23;;;;;;;5.22;1.33;;;28.50;99.90;;;;;;5046308;28;20030;-68
2021/12/25 01:52:50;;;;;;;4.30;0.90;;;28.50;99.90;;;;;;5051241;28;20033;-68
2021/12/25 01:55:25;;;;;;;7.10;1.15;;;28.50;99.90;;;;;;5046685;28;20032;-68
2021/12/25 01:57:54;;;;;;;6.35;0.70;;;28.80;99.90;;;;;;5049733;28;20037;-68
2021/12/25 02:00:26;;;;;;;6.32;1.00;;;28.80;99.90;;;;;;5049256;28;20018;-68
2021/12/25 02:02:54;;;;;;;3.53;0.80;;;29.00;99.90;;;;;;5049726;28;20029;-68
2021/12/25 02:05:23;;;;;;;4.03;0.80;;;29.10;99.90;;;;;;5052076;28;20032;-68
2021/12/25 02:07:50;;;;;;;4.18;0.60;;;28.80;99.90;;;;;;5052789;28;20026;-68
2021/12/25 02:10:19;;;;;;;3.05;0.70;;;28.90;99.90;;;;;;5053611;28;20125;-67
2021/12/25 02:12:47;;;;;;;3.90;0.90;;;29.00;99.90;;;;;;5050613;28;20039;-67
2021/12/25 02:15:19;;;;;;;4.55;1.00;;;28.70;99.90;;;;;;5053696;28;20051;-68
2021/12/25 02:18:25;;;;;;;5.65;1.23;;;29.00;99.90;;;;;;5039237;28;20068;-68
2021/12/25 02:20:53;;;;;;;3.45;1.00;;;28.80;99.90;;;;;;5049035;28;20037;-68
2021/12/25 02:23:23;;;;;;;5.65;1.40;;;28.80;99.90;;;;;;5032333;28;20044;-68
2021/12/25 02:25:54;;;;;;;4.68;0.85;;;28.80;99.90;;;;;;5041553;28;20124;-67
2021/12/25 02:28:22;;;;;;;5.25;0.98;;;29.00;99.90;;;;;;5035965;28;20040;-68
2021/12/25 02:30:53;;;;;;;4.88;1.10;;;29.00;99.90;;;;;;5051488;28;20109;-68
2021/12/25 02:33:21;;;;;;;7.65;0.90;;;29.20;99.90;;;;;;5033379;28;20021;-68
2021/12/25 02:35:48;;;;;;;7.47;0.90;;;28.60;99.90;;;;;;5033602;28;20137;-68
2021/12/25 02:38:15;;;;;;;7.60;0.95;;;28.80;99.90;;;;;;5032765;28;20033;-68
2021/12/25 02:40:43;;;;;;;5.97;1.00;;;28.90;99.90;;;;;;5032990;28;20040;-68
2021/12/25 02:43:11;;;;;;;3.45;1.05;;;28.70;99.90;;;;;;5052064;28;20381;-68
2021/12/25 02:45:39;;;;;;;5.20;0.93;;;28.70;99.90;;;;;;5053210;28;20017;-68
2021/12/25 02:48:11;;;;;;;3.30;0.65;;;28.80;99.90;;;;;;5033211;28;20060;-68
2021/12/25 02:50:40;;;;;;;3.38;0.80;;;28.60;99.90;;;;;;5033204;28;20028;-68
2021/12/25 02:53:10;;;;;;;2.53;0.95;;;28.60;99.90;;;;;;5052168;28;20057;-67
2021/12/25 02:55:39;;;;;;;1.35;0.63;;;28.30;99.90;;;;;;5052729;28;20028;-68
2021/12/25 02:58:07;;;;;;;4.28;0.70;;;28.50;99.90;;;;;;5052460;28;20489;-68
2021/12/25 03:00:42;;;;;;;2.03;0.65;;;28.40;99.90;;;;;;5053049;28;20032;-68
2021/12/25 03:03:09;;;;;;;6.20;1.00;;;28.60;99.90;;;;;;5052325;28;20044;-67
2021/12/25 03:05:38;;;;;;;6.40;1.20;;;28.70;99.90;;;;;;5048941;28;20168;-68
2021/12/25 03:08:08;;;;;;;3.22;0.65;;;28.80;99.90;;;;;;5050431;28;20055;-68
2021/12/25 03:10:36;;;;;;;4.93;1.02;;;28.90;99.90;;;;;;5052200;28;20477;-68
2021/12/25 03:15:45;;;;;;;2.88;1.08;;;28.90;99.90;;;;;;5032690;28;20037;-67
2021/12/25 03:18:28;;;;;;;4.07;0.82;;;28.80;99.90;;;;;;5032441;28;20100;-67
2021/12/25 03:21:02;;;;;;;4.75;1.02;;;28.70;99.90;;;;;;5036386;28;20441;-68
2021/12/25 03:23:30;;;;;;;2.95;0.60;;;28.80;99.90;;;;;;5052662;28;20248;-68
2021/12/25 03:26:00;;;;;;;2.75;0.73;;;28.90;99.90;;;;;;5048414;28;20452;-68
2021/12/25 03:28:31;;;;;;;3.20;0.75;;;28.90;99.90;;;;;;5050166;28;20037;-68
2021/12/25 03:31:03;;;;;;;4.50;0.70;;;29.10;99.90;;;;;;5050340;28;20152;-68
2021/12/25 03:33:32;;;;;;;4.50;0.70;;;29.20;99.90;;;;;;5052299;28;20493;-68
2021/12/25 03:36:01;;;;;;;2.95;0.52;;;29.30;99.90;;;;;;5050639;28;20032;-68
2021/12/25 03:38:30;;;;;;;3.60;0.88;;;29.10;99.90;;;;;;5032554;28;20022;-68
2021/12/25 03:40:59;;;;;;;4.95;0.90;;;29.00;99.90;;;;;;5032732;28;20029;-68
2021/12/25 03:43:26;;;;;;;2.80;0.50;;;28.90;99.90;;;;;;5046267;28;20393;-68
2021/12/25 03:45:55;;;;;;;3.50;0.93;;;29.00;99.90;;;;;;5050480;28;20033;-68
2021/12/25 03:58:53;;;;;;;6.95;1.13;;;28.90;99.90;;;;;;5056450;28;20177;-68
2021/12/25 04:04:04;;;;;;;4.30;0.60;;;28.80;99.90;;;;;;5054950;28;20025;-68
2021/12/25 04:06:33;;;;;;;6.13;0.70;;;28.70;99.90;;;;;;5040200;28;20366;-68
2021/12/25 04:09:04;;;;;;;5.22;0.80;;;28.70;99.90;;;;;;5048800;28;20408;-68
2021/12/25 04:11:34;;;;;;;5.75;1.27;;;28.50;99.90;;;;;;5040650;28;20067;-68
2021/12/25 04:14:02;;;;;;;9.93;1.17;;;28.60;99.90;;;;;;5055990;28;20017;-68
2021/12/25 04:16:29;;;;;;;6.07;0.98;;;28.60;99.90;;;;;;5049031;28;20034;-68
2021/12/25 04:18:56;;;;;;;4.28;1.08;;;28.70;99.90;;;;;;5035914;28;20037;-67
2021/12/25 04:21:24;;;;;;;5.85;1.25;;;28.40;99.90;;;;;;5040259;28;20520;-68
2021/12/25 04:23:52;;;;;;;4.20;0.90;;;28.40;99.90;;;;;;5067251;28;20033;-68
2021/12/25 04:26:22;;;;;;;4.38;0.80;;;28.40;99.90;;;;;;5052397;28;20029;-68
2021/12/25 04:29:06;;;;;;;4.35;1.20;;;28.20;99.90;;;;;;5054230;28;20032;-68
2021/12/25 04:32:07;;;;;;;7.15;0.68;;;28.30;99.90;;;;;;5054298;28;20112;-67
2021/12/25 04:47:42;;;;;;;3.72;0.95;;;27.90;99.90;;;;;;5049868;28;20068;-68
2021/12/25 04:49:31;;;;;;;5.90;0.70;;;27.80;99.90;;;;;;5033246;28;20041;-69
2021/12/25 05:03:07;;;;;;;4.05;0.77;;;28.10;99.90;;;;;;5037381;28;20060;-68
2021/12/25 05:05:35;;;;;;;5.85;1.15;;;28.30;99.90;;;;;;5064753;28;20056;-68
2021/12/25 05:08:02;;;;;;;8.25;1.38;;;28.30;99.90;;;;;;5035901;28;20022;-68
2021/12/25 05:10:29;;;;;;;4.90;0.80;;;28.10;99.90;;;;;;5034992;28;20152;-68
2021/12/25 05:12:57;;;;;;;6.57;1.00;;;28.00;99.90;;;;;;5051886;28;20423;-67
2021/12/25 05:15:24;;;;;;;2.40;0.55;;;27.80;99.90;;;;;;5054907;28;20370;-67
2021/12/25 05:17:51;;;;;;;4.18;0.73;;;27.70;99.90;;;;;;5053611;28;20025;-68
2021/12/25 05:20:19;;;;;;;3.97;0.77;;;27.50;99.90;;;;;;5048663;28;20028;-68
2021/12/25 05:22:46;;;;;;;6.20;1.05;;;27.40;99.90;;;;;;5044220;28;20037;-68
2021/12/25 05:25:15;;;;;;;3.28;0.90;;;27.50;99.90;;;;;;5034430;28;20025;-68
2021/12/25 05:27:44;;;;;;;6.32;0.95;;;27.70;99.90;;;;;;5049491;28;20060;-67
2021/12/25 05:30:12;;;;;;;6.55;1.05;;;27.80;99.90;;;;;;5054381;28;20362;-69
2021/12/25 05:32:40;;;;;;;5.95;1.02;;;27.80;99.90;;;;;;5037904;28;20033;-68
2021/12/25 05:35:07;;;;;;;7.93;1.88;;;27.80;99.90;;;;;;5035780;28;20047;-68
2021/12/25 05:37:34;;;;;;;5.00;1.00;;;27.80;99.90;;;;;;5050487;28;20029;-67
2021/12/25 05:40:04;;;;;;;8.18;1.13;;;27.70;99.90;;;;;;5053014;28;20025;-67
2021/12/25 05:42:31;;;;;;;4.22;1.02;;;27.70;99.90;;;;;;5048797;28;20505;-68
2021/12/25 05:44:59;;;;;;;4.22;0.95;;;27.40;99.90;;;;;;5049597;28;20034;-68
2021/12/25 05:47:27;;;;;;;6.53;1.13;;;27.50;99.90;;;;;;5046950;28;20083;-67
2021/12/25 05:49:54;;;;;;;4.45;1.30;;;27.40;99.90;;;;;;5053114;28;20037;-67
2021/12/25 05:52:22;;;;;;;13.70;0.95;;;27.50;99.90;;;;;;5040794;28;20021;-68
2021/12/25 05:54:49;;;;;;;5.32;0.80;;;27.20;99.90;;;;;;5048890;28;20246;-67
2021/12/25 05:57:16;;;;;;;3.50;0.80;;;27.10;99.90;;;;;;5036549;28;20037;-68
2021/12/25 05:59:44;;;;;;;5.57;0.98;;;27.00;99.90;;;;;;5049162;28;20488;-67
2021/12/25 06:02:12;;;;;;;5.03;0.88;;;26.90;99.90;;;;;;5065239;28;20033;-67
2021/12/25 06:04:40;;;;;;;6.80;0.90;;;26.90;99.90;;;;;;5051076;28;20028;-66
2021/12/25 06:07:07;;;;;;;4.95;0.68;;;26.60;99.90;;;;;;5052952;28;20037;-68
2021/12/25 06:09:34;;;;;;;9.60;1.35;;;26.60;99.90;;;;;;5049055;28;20124;-68
2021/12/25 06:12:04;;;;;;;4.50;0.70;;;26.50;99.90;;;;;;5050877;28;20088;-68
2021/12/25 06:14:31;;;;;;;7.03;1.00;;;26.50;99.90;;;;;;5047058;28;20110;-68
2021/12/25 06:16:58;;;;;;;5.90;0.90;;;26.50;99.90;;;;;;5046656;28;20533;-68
2021/12/25 06:19:25;;;;;;;6.07;0.88;;;26.50;99.90;;;;;;5053423;28;20020;-67
2021/12/25 06:21:53;;;;;;;9.98;0.70;;;26.50;99.90;;;;;;5051997;28;20081;-68
2021/12/25 06:24:21;;;;;;;9.70;1.02;;;26.60;99.90;;;;;;5053674;28;20025;-68
2021/12/25 06:26:49;;;;;;;8.32;1.20;;;26.50;99.90;;;;;;5050804;28;20030;-68
2021/12/25 06:29:19;;;;;;;6.55;0.88;;;26.60;99.90;;;;;;5052646;28;20106;-68
2021/12/25 06:31:47;;;;;;;6.78;1.98;;;26.50;99.90;;;;;;5051786;28;20016;-68
2021/12/25 06:34:15;;;;;;;5.35;1.30;;;26.30;99.90;;;;;;5052664;28;20052;-68
2021/12/25 06:36:42;;;;;;;5.68;0.70;;;26.40;99.90;;;;;;5051716;28;20033;-68
2021/12/25 06:39:14;;;;;;;7.90;1.67;;;26.20;99.90;;;;;;5057903;28;20049;-62
2021/12/25 06:41:44;;;;;;;8.00;1.17;;;26.10;99.90;;;;;;5055145;28;20033;-62
2021/12/25 06:44:11;;;;;;;5.53;0.93;;;26.10;99.90;;;;;;5056173;28;20026;-62
2021/12/25 06:46:38;;;;;;;4.88;1.45;;;26.10;99.90;;;;;;5054297;28;20099;-63
2021/12/25 06:49:06;;;;;;;8.80;0.93;;;26.10;99.90;;;;;;5052293;28;20037;-62
2021/12/25 06:51:35;;;;;;;12.23;1.02;;;26.10;99.90;;;;;;5047755;28;20025;-63
2021/12/25 06:54:03;;;;;;;11.13;1.27;;;26.00;99.90;;;;;;5052433;28;20465;-63
2021/12/25 06:56:31;;;;;;;7.82;1.20;;;26.00;99.90;;;;;;5051802;28;20029;-63
2021/12/25 06:58:58;;;;;;;5.68;1.33;;;26.00;99.90;;;;;;5048030;28;20056;-62
2021/12/25 07:01:25;;;;;;;7.30;1.00;;;25.90;99.90;;;;;;5038412;28;20087;-63
2021/12/25 07:03:53;;;;;;;12.48;1.40;;;25.80;99.90;;;;;;5050665;28;20424;-63
2021/12/25 07:06:21;;;;;;;8.70;1.13;;;25.80;99.90;;;;;;5051359;28;20021;-63
2021/12/25 07:08:49;;;;;;;4.43;1.15;;;25.80;99.90;;;;;;5053291;28;20025;-63
2021/12/25 07:11:18;;;;;;;7.45;1.00;;;25.80;99.90;;;;;;5052522;28;20025;-63
2021/12/25 07:13:46;;;;;;;6.45;0.88;;;25.80;99.90;;;;;;5053080;28;20389;-63
2021/12/25 07:16:14;;;;;;;9.18;2.05;;;25.80;99.90;;;;;;5041233;28;20516;-63
2021/12/25 07:18:41;;;;;;;11.77;1.67;;;25.70;99.90;;;;;;5051602;28;20040;-63
2021/12/25 07:21:09;;;;;;;9.70;1.55;;;25.80;99.90;;;;;;5051057;28;20043;-63
2021/12/25 07:23:36;;;;;;;10.70;1.83;;;25.70;99.90;;;;;;5050106;28;20106;-63
2021/12/25 07:26:04;;;;;;;8.23;1.60;;;25.70;99.90;;;;;;5050616;28;20033;-63
2021/12/25 07:28:33;;;;;;;14.27;1.80;;;25.70;99.90;;;;;;5051003;28;20025;-63
2021/12/25 07:31:01;;;;;;;13.43;2.67;;;25.60;99.90;;;;;;5051791;28;20021;-63
2021/12/25 07:33:29;;;;;;;11.13;1.50;;;25.60;99.90;;;;;;5052959;28;20029;-63
2021/12/25 07:35:57;;;;;;;7.97;1.20;;;25.60;99.90;;;;;;5051402;28;20029;-63
2021/12/25 07:38:25;;;;;;;9.15;1.58;;;25.50;99.90;;;;;;5051639;28;20029;-63
2021/12/25 07:40:52;;;;;;;11.65;0.90;;;25.50;99.90;;;;;;5052623;28;20466;-63
2021/12/25 07:43:19;;;;;;;9.00;1.20;;;25.40;99.90;;;;;;5052285;28;20024;-63
2021/12/25 07:45:48;;;;;;;7.07;1.35;;;25.40;99.90;;;;;;5050044;28;20039;-63
2021/12/25 07:48:19;;;;;;;7.20;1.60;;;25.30;99.90;;;;;;5052248;28;20094;-63
2021/12/25 07:50:47;;;;;;;10.63;1.95;;;25.30;99.90;;;;;;5053029;28;20041;-63
2021/12/25 07:53:16;;;;;;;6.28;1.33;;;25.20;99.90;;;;;;5051065;28;20024;-63
2021/12/25 07:55:47;;;;;;;8.13;1.20;;;25.20;99.90;;;;;;5038921;28;20117;-62
2021/12/25 07:58:16;;;;;;;5.53;1.25;;;25.20;99.90;;;;;;5051258;28;20047;-63
2021/12/25 08:00:44;;;;;;;8.68;1.23;;;25.20;99.90;;;;;;5052834;28;20027;-63
2021/12/25 08:03:18;;;;;;;7.55;0.90;;;25.20;99.90;;;;;;5052616;28;20455;-63
2021/12/25 08:05:45;;;;;;;8.50;1.20;;;25.20;99.90;;;;;;5052381;28;20035;-63
2021/12/25 08:08:13;;;;;;;9.38;1.33;;;25.10;99.90;;;;;;5052237;28;20079;-63
2021/12/25 08:10:42;;;;;;;5.90;1.05;;;25.20;99.90;;;;;;5052134;28;20397;-63
2021/12/25 08:13:10;;;;;;;7.07;1.55;;;25.10;99.90;;;;;;5053348;28;20087;-63
2021/12/25 08:15:37;;;;;;;8.30;1.65;;;25.00;99.90;;;;;;5052801;28;20033;-63
2021/12/25 08:18:05;;;;;;;8.27;2.03;;;25.00;99.90;;;;;;5052977;28;20029;-63
2021/12/25 08:20:34;;;;;;;5.95;1.00;;;25.00;99.90;;;;;;5052912;28;20063;-63
2021/12/25 08:23:02;;;;;;;9.75;1.50;;;25.00;99.90;;;;;;5051694;28;20021;-68
2021/12/25 08:25:29;;;;;;;8.15;1.25;;;25.00;99.90;;;;;;5056628;28;20511;-68
2021/12/25 08:27:57;;;;;;;6.38;1.20;;;25.00;99.90;;;;;;5062658;28;20056;-68
2021/12/25 08:30:26;;;;;;;8.35;1.13;;;25.00;99.90;;;;;;5030429;28;20025;-68
2021/12/25 08:32:58;;;;;;;6.30;0.82;;;25.00;99.90;;;;;;5049238;28;20044;-68
2021/12/25 08:35:28;;;;;;;8.48;1.25;;;24.90;99.90;;;;;;5051732;28;20049;-68
2021/12/25 08:37:56;;;;;;;7.55;1.17;;;24.90;99.90;;;;;;5053228;28;20090;-68
2021/12/25 08:40:24;;;;;;;8.15;1.23;;;24.90;99.90;;;;;;5054385;28;20036;-67
2021/12/25 08:42:57;;;;;;;7.28;0.98;;;24.80;99.90;;;;;;5055049;28;20473;-68
2021/12/25 08:46:16;;;;;;;7.60;1.30;;;24.90;99.90;;;;;;5054760;28;20017;-68
2021/12/25 08:48:21;;;;;;;7.18;1.27;;;24.90;99.90;;;;;;5036181;28;20119;-68
2021/12/25 08:50:54;;;;;;;6.75;0.90;;;24.90;99.90;;;;;;5052317;28;20428;-68
2021/12/25 08:53:24;;;;;;;7.60;0.90;;;24.90;99.90;;;;;;5052670;28;20029;-68
2021/12/25 08:55:54;;;;;;;9.52;1.20;;;24.70;99.90;;;;;;5054702;28;20046;-68
2021/12/25 08:58:23;;;;;;;8.90;1.58;;;24.70;99.90;;;;;;5054141;28;20386;-68
2021/12/25 09:00:55;;;;;;;11.20;2.28;;;24.70;99.90;;;;;;5046644;28;20029;-68
2021/12/25 09:03:26;;;;;;;8.55;1.10;;;24.70;99.90;;;;;;5053505;28;20112;-68
2021/12/25 09:05:58;;;;;;;10.70;1.88;;;24.70;99.90;;;;;;5057064;28;20484;-68
2021/12/25 09:08:26;;;;;;;11.13;1.50;;;24.70;99.90;;;;;;5053148;28;20031;-69
2021/12/25 09:10:53;;;;;;;9.65;1.40;;;24.60;99.90;;;;;;5054113;28;20021;-67
2021/12/25 09:13:22;;;;;;;8.45;0.82;;;24.60;99.90;;;;;;5054835;28;20067;-68
2021/12/25 09:15:50;;;;;;;6.35;0.95;;;24.60;99.90;;;;;;5053072;28;20503;-68
2021/12/25 09:18:17;;;;;;;12.50;1.38;;;24.60;99.90;;;;;;5055178;28;20033;-68
2021/12/25 09:20:44;;;;;;;15.40;2.20;;;24.60;99.90;;;;;;5049202;28;20025;-68
2021/12/25 09:23:12;;;;;;;11.68;2.10;;;24.60;99.90;;;;;;5054448;28;20017;-67
2021/12/25 09:25:39;;;;;;;8.32;2.20;;;24.50;99.90;;;;;;5059464;28;20392;-68
2021/12/25 09:28:06;;;;;;;12.85;1.55;;;24.50;99.90;;;;;;5052872;28;20450;-68
2021/12/25 09:30:36;;;;;;;6.82;1.30;;;24.50;99.90;;;;;;5052561;28;20142;-68
2021/12/25 09:33:05;;;;;;;8.30;1.52;;;24.50;99.90;;;;;;5050653;28;20438;-68
2021/12/25 09:35:32;;;;;;;9.73;1.65;;;24.50;99.90;;;;;;5043959;28;20082;-68
2021/12/25 09:37:59;;;;;;;10.15;1.52;;;24.40;99.90;;;;;;5052067;28;20102;-68
2021/12/25 09:40:27;;;;;;;8.68;1.10;;;24.50;99.90;;;;;;5052513;28;20028;-68
2021/12/25 09:42:55;;;;;;;10.38;1.55;;;24.50;99.90;;;;;;5050738;28;20435;-68
2021/12/25 09:45:23;;;;;;;12.43;1.92;;;24.40;99.90;;;;;;5033151;28;20045;-68
2021/12/25 09:47:50;;;;;;;9.82;1.35;;;24.50;99.90;;;;;;5050278;28;20087;-68
2021/12/25 09:50:18;;;;;;;9.93;1.08;;;24.40;99.90;;;;;;5047185;28;20424;-67
2021/12/25 09:52:45;;;;;;;9.60;0.95;;;24.50;99.90;;;;;;5033915;28;20025;-68
2021/12/25 09:55:15;;;;;;;10.40;1.25;;;24.50;99.90;;;;;;5049102;28;20036;-68
2021/12/25 09:57:42;;;;;;;9.48;1.40;;;24.40;99.90;;;;;;5033873;28;20033;-67
2021/12/25 10:00:13;;;;;;;6.75;1.25;;;24.50;99.90;;;;;;5043072;28;20553;-68
2021/12/25 10:02:47;;;;;;;9.48;0.93;;;24.50;99.90;;;;;;5054179;28;20025;-68
2021/12/25 10:05:28;;;;;;;10.13;1.23;;;24.50;99.90;;;;;;5052275;28;20029;-68
2021/12/25 10:08:13;;;;;;;10.43;1.15;;;24.50;99.90;;;;;;5053470;28;20046;-68
2021/12/25 10:10:42;;;;;;;11.30;1.45;;;24.40;99.90;;;;;;5052380;28;20162;-68
2021/12/25 10:13:32;;;;;;;8.75;1.58;;;24.40;99.90;;;;;;5052130;28;20072;-68
2021/12/25 10:16:18;;;;;;;7.90;0.95;;;24.40;99.90;;;;;;5053432;28;20075;-68
2021/12/25 10:18:46;;;;;;;12.50;1.60;;;24.30;99.90;;;;;;5053292;28;20013;-68
2021/12/25 10:21:23;;;;;;;11.38;2.03;;;24.30;99.90;;;;;;5064092;28;20036;-69
2021/12/25 10:24:15;;;;;;;8.07;1.65;;;24.30;99.90;;;;;;5052070;28;20029;-68
2021/12/25 10:26:46;;;;;;;11.60;2.03;;;24.30;99.90;;;;;;5052017;28;20045;-68
2021/12/25 10:29:25;;;;;;;13.27;1.65;;;24.30;99.90;;;;;;5052169;28;20508;-68
2021/12/25 10:31:55;;;;;;;13.55;1.45;;;24.30;99.90;;;;;;5053184;28;20144;-68
2021/12/25 10:34:28;;;;;;;11.45;1.58;;;24.30;99.90;;;;;;5053059;28;20028;-68
2021/12/25 10:37:06;;;;;;;9.75;2.33;;;24.30;99.90;;;;;;5051691;28;20063;-68
2021/12/25 10:39:33;;;;;;;10.60;1.40;;;24.30;99.90;;;;;;5047806;28;20025;-67
2021/12/25 10:42:10;;;;;;;8.80;1.65;;;24.20;99.90;;;;;;5052582;28;20021;-68
2021/12/25 10:44:43;;;;;;;6.90;1.77;;;24.30;99.90;;;;;;5054671;28;20029;-68
2021/12/25 10:47:20;;;;;;;14.23;1.80;;;24.30;99.90;;;;;;5049669;28;20124;-68
2021/12/25 10:49:59;;;;;;;11.95;1.77;;;24.30;99.90;;;;;;5050555;28;20036;-68
2021/12/25 10:52:29;;;;;;;14.48;1.80;;;24.20;99.90;;;;;;5051461;28;20082;-69
2021/12/25 10:54:59;;;;;;;6.55;1.23;;;24.20;99.90;;;;;;5050355;28;20037;-67
2021/12/25 10:57:47;;;;;;;13.60;1.77;;;24.20;99.90;;;;;;5052515;28;20103;-68
2021/12/25 11:00:25;;;;;;;9.65;1.80;;;24.20;99.90;;;;;;5050822;28;20063;-68
2021/12/25 11:02:54;;;;;;;7.88;1.45;;;24.10;99.90;;;;;;5051574;28;20079;-69
2021/12/25 11:05:23;;;;;;;11.60;1.60;;;24.10;99.90;;;;;;5048131;28;20115;-66
2021/12/25 11:08:12;;;;;;;10.18;1.55;;;24.10;99.90;;;;;;5060965;28;20045;-68
2021/12/25 11:10:49;;;;;;;12.60;2.40;;;24.10;99.90;;;;;;5048106;28;20510;-69
2021/12/25 11:13:21;;;;;;;9.68;1.13;;;24.10;99.90;;;;;;5049702;28;20454;-69
2021/12/25 11:15:53;;;;;;;11.77;1.95;;;24.00;99.90;;;;;;5050641;28;20025;-68
2021/12/25 11:18:20;;;;;;;7.88;1.65;;;24.00;99.90;;;;;;5050674;28;20029;-68
2021/12/25 11:20:48;;;;;;;10.57;1.52;;;24.00;99.90;;;;;;5052540;28;20032;-69
2021/12/25 11:23:16;;;;;;;15.45;1.98;;;24.00;99.90;;;;;;5047033;28;20473;-69
2021/12/25 11:25:45;;;;;;;11.77;1.95;;;23.90;99.90;;;;;;5051184;28;20025;-69
2021/12/25 11:28:18;;;;;;;15.57;1.67;;;23.90;99.90;;;;;;5052120;28;20047;-68
2021/12/25 11:30:49;;;;;;;6.63;0.95;;;23.90;99.90;;;;;;5052598;28;20385;-69
2021/12/25 11:33:17;;;;;;;13.63;1.35;;;23.90;99.90;;;;;;5051110;28;20036;-68
2021/12/25 11:35:44;;;;;;;10.32;1.20;;;23.80;99.90;;;;;;5052183;28;20501;-68
2021/12/25 11:38:13;;;;;;;16.75;1.42;;;23.80;99.90;;;;;;5051670;28;20024;-67
2021/12/25 11:40:49;;;;;;;13.80;1.92;;;23.80;99.90;;;;;;5049986;28;20087;-69
2021/12/25 11:43:32;;;;;;;13.55;2.13;;;23.80;99.90;;;;;;5050532;28;20057;-68
2021/12/25 11:46:00;;;;;;;7.75;1.45;;;23.80;99.90;;;;;;5049163;28;20025;-68
2021/12/25 11:48:27;;;;;;;12.77;1.92;;;23.80;99.90;;;;;;5050994;28;20052;-67
2021/12/25 11:50:56;;;;;;;11.80;1.63;;;23.80;99.90;;;;;;5050657;28;20056;-68
2021/12/25 11:54:03;;;;;;;10.75;1.42;;;23.80;99.90;;;;;;5050691;28;20385;-69
2021/12/25 11:56:40;;;;;;;11.55;1.75;;;23.80;99.90;;;;;;5050302;28;20056;-68
2021/12/25 11:59:13;;;;;;;11.93;1.42;;;23.70;99.90;;;;;;5051645;28;20021;-69
2021/12/25 12:01:48;;;;;;;10.27;2.00;;;23.70;99.90;;;;;;5051494;28;20029;-68
2021/12/25 12:04:18;;;;;;;14.45;2.00;;;23.70;99.90;;;;;;5049859;28;20052;-69
2021/12/25 12:06:46;;;;;;;11.52;1.92;;;23.70;99.90;;;;;;5051769;28;20017;-67
2021/12/25 12:09:17;;;;;;;17.90;2.35;;;23.70;99.90;;;;;;5049397;28;20041;-67
2021/12/25 12:11:49;;;;;;;9.70;2.03;;;23.70;99.90;;;;;;5054833;28;20025;-67
2021/12/25 12:14:27;;;;;;;9.80;2.00;;;23.70;99.90;;;;;;5054350;28;20156;-68
2021/12/25 12:17:04;;;;;;;11.38;1.48;;;23.70;99.90;;;;;;5048142;28;20386;-68
2021/12/25 12:19:36;;;;;;;11.43;2.20;;;23.60;99.90;;;;;;5055974;28;20056;-67
2021/12/25 12:22:20;;;;;;;10.65;1.73;;;23.60;99.90;;;;;;5055290;28;20017;-67
2021/12/25 12:27:42;;;;;;;10.02;2.05;;;23.50;99.90;;;;;;5055641;28;20040;-68
2021/12/25 12:30:34;;;;;;;11.02;1.35;;;23.50;99.90;;;;;;5053902;28;20033;-69
2021/12/25 12:33:17;;;;;;;7.30;0.98;;;23.50;99.90;;;;;;5044327;28;20037;-68
2021/12/25 12:35:52;;;;;;;9.32;1.08;;;23.50;99.90;;;;;;5055701;28;20025;-69
2021/12/25 12:38:36;;;;;;;8.65;1.15;;;23.50;99.90;;;;;;5054050;28;20021;-68
2021/12/25 12:41:31;;;;;;;9.50;1.63;;;23.50;99.90;;;;;;5047211;28;20033;-68
2021/12/25 12:44:37;;;;;;;14.57;2.38;;;23.40;99.90;;;;;;5054820;28;20044;-69
2021/12/25 12:47:12;;;;;;;8.68;1.98;;;23.40;99.90;;;;;;5050103;28;20060;-67
2021/12/25 12:49:40;;;;;;;14.55;2.33;;;23.40;99.90;;;;;;5043287;28;20100;-67
2021/12/25 12:52:21;;;;;;;10.50;1.88;;;23.40;99.90;;;;;;5055033;28;20021;-69
2021/12/25 12:54:56;;;;;;;8.45;1.55;;;23.40;99.90;;;;;;5055207;28;20100;-68
2021/12/25 12:57:36;;;;;;;10.43;1.30;;;23.40;99.90;;;;;;5054513;28;20056;-67
2021/12/25 13:00:17;;;;;;;8.57;1.25;;;23.40;99.90;;;;;;5054124;28;20040;-67
2021/12/25 13:02:47;;;;;;;9.38;1.30;;;23.40;99.90;;;;;;5039935;28;20013;-67
2021/12/25 13:05:18;;;;;;;7.07;1.35;;;23.30;99.90;;;;;;5054617;28;20417;-67
2021/12/25 13:07:47;;;;;;;9.77;1.42;;;23.30;99.90;;;;;;5058982;28;20020;-67
2021/12/25 13:10:26;;;;;;;11.30;2.05;;;23.30;99.90;;;;;;5053005;28;20025;-67
2021/12/25 13:13:05;;;;;;;7.20;1.15;;;23.30;99.90;;;;;;5055286;28;20033;-67
2021/12/25 13:15:34;;;;;;;6.80;1.65;;;23.30;99.90;;;;;;5054945;28;20481;-67
2021/12/25 13:18:06;;;;;;;9.43;1.70;;;23.20;99.90;;;;;;5054661;28;20091;-67
2021/12/25 13:20:46;;;;;;;5.97;1.20;;;23.20;99.90;;;;;;5053782;28;20029;-67
2021/12/25 13:23:23;;;;;;;10.43;1.48;;;23.20;99.90;;;;;;5053916;28;20063;-67
2021/12/25 13:25:56;;;;;;;9.88;1.60;;;23.20;99.90;;;;;;5054991;28;20021;-68
2021/12/25 13:28:26;;;;;;;10.82;1.45;;;23.20;99.90;;;;;;5054792;28;20028;-67
2021/12/25 13:31:01;;;;;;;11.05;1.60;;;23.10;99.90;;;;;;5055042;28;20075;-67
2021/12/25 13:33:31;;;;;;;10.13;1.45;;;23.10;99.90;;;;;;5053556;28;20029;-68
2021/12/25 13:36:05;;;;;;;14.10;1.45;;;23.10;99.90;;;;;;5046201;28;20021;-67
2021/12/25 13:38:50;;;;;;;;;;;23.10;99.90;;;;;;5057228;28;20389;-67
2021/12/25 13:41:30;;;;;;;10.55;1.65;;;23.10;99.90;;;;;;5071852;28;19913;-67
2021/12/25 13:44:08;;;;;;;8.63;1.73;;;23.00;99.90;;;;;;5058210;28;20078;-68
2021/12/25 13:46:46;;;;;;;9.80;1.25;;;23.00;99.90;;;;;;5053295;28;20485;-67
2021/12/25 13:49:40;;;;;;;6.97;1.73;;;23.00;99.90;;;;;;5053716;28;20092;-67
2021/12/25 13:52:12;;;;;;;9.85;1.42;;;23.00;99.90;;;;;;5052566;28;20040;-68
2021/12/25 13:54:45;;;;;;;4.38;0.75;;;23.00;99.90;;;;;;5054195;28;20033;-67
2021/12/25 13:57:13;;;;;;;9.65;1.20;;;23.00;99.90;;;;;;5058254;28;20033;-67
2021/12/25 13:59:42;;;;;;;7.25;1.10;;;23.00;99.90;;;;;;5054230;28;20390;-67
2021/12/25 14:02:11;;;;;;;11.05;1.83;;;23.00;99.90;;;;;;5053866;28;20020;-68
2021/12/25 14:04:41;;;;;;;11.45;1.65;;;23.00;99.90;;;;;;5051331;28;20040;-68
2021/12/25 14:07:10;;;;;;;12.35;1.60;;;23.00;99.90;;;;;;5049955;28;20074;-67
2021/12/25 14:09:37;;;;;;;8.48;1.40;;;22.90;99.90;;;;;;5054976;28;20026;-67
2021/12/25 14:12:06;;;;;;;13.10;2.17;;;22.90;99.90;;;;;;5053389;28;20021;-67
2021/12/25 14:14:33;;;;;;;8.10;1.67;;;22.90;99.90;;;;;;5053355;28;20479;-67
2021/12/25 14:17:01;;;;;;;14.95;2.33;;;22.80;99.90;;;;;;5053690;28;20064;-67